EGSS

London Stansted Airport

London, United Kingdom
METAR EGSS 210350Z AUTO 26004KT 9999 SCT033 OVC049 17/16 Q1019
Observed Flight Rules
Aug-21 @ 03:50 UTC (19 minutes ago) Visual Flight Rules
Wind Visibility Clouds
260° at 4 knots 10,000+ meters
  • Scattered at 3,300' AGL
  • Overcast at 4,900' AGL
Temperatures Readings
Current 17°C / 63°F
Dewpoint 16°C / 61°F
Humidity 94%
Altimeter 30.09" Hg
Pressure 1019 hPa
Elevation 106
METAR EGSS 210350Z AUTO 26004KT 9999 SCT033 OVC049 17/16 Q1019
Observed Flight Rules
Aug-21 @ 03:50 UTC
(19 minutes ago)
VFR
Wind Visibility
260° at 4 knots 10,000+ meters
Clouds
  • Scattered at 3,300' AGL
  • Overcast at 4,900' AGL
Temperature Dewpoint
17°C / 63°F 16°C / 61°F
Humidity Altimeter Pressure
94% 30.09" Hg 1019 hPa